createdAt,value
2023-04-15T00:02:51.610Z,94266.22
2023-04-15T00:06:34.369Z,94262.00
2023-04-15T00:10:16.999Z,94257.78
2023-04-15T00:14:01.047Z,94257.38
2023-04-15T00:17:43.692Z,94252.94
2023-04-15T00:21:27.543Z,94256.16
2023-04-15T00:25:10.527Z,94249.34
2023-04-15T00:28:53.170Z,94244.94
2023-04-15T00:32:37.182Z,94243.34
2023-04-15T00:36:19.797Z,94237.72
2023-04-15T00:40:04.970Z,94227.47
2023-04-15T00:43:48.029Z,94235.31
2023-04-15T00:47:34.195Z,94230.69
2023-04-15T00:51:18.269Z,94228.47
2023-04-15T00:55:01.212Z,94227.88
2023-04-15T00:58:43.853Z,94224.06
2023-04-15T01:02:27.407Z,94224.44
2023-04-15T01:06:10.293Z,94236.88
2023-04-15T01:09:54.471Z,94228.06
2023-04-15T01:13:37.667Z,94230.66
2023-04-15T01:17:20.871Z,94222.84
2023-04-15T01:21:03.725Z,94226.66
2023-04-15T01:24:56.963Z,94236.28
2023-04-15T01:28:40.987Z,94227.47
2023-04-15T01:32:23.643Z,94232.88
2023-04-15T01:36:08.491Z,94232.06
2023-04-15T01:39:51.728Z,94240.03
2023-04-15T01:43:34.392Z,94232.63
2023-04-15T01:47:18.591Z,94234.88
2023-04-15T01:51:01.443Z,94239.09
2023-04-15T01:54:44.126Z,94240.13
2023-04-15T01:58:27.274Z,94236.13
2023-04-15T02:02:10.593Z,94239.91
2023-04-15T02:05:54.672Z,94237.50
2023-04-15T02:09:39.789Z,94235.69
2023-04-15T02:13:22.480Z,94240.09
2023-04-15T02:17:07.441Z,94240.50
2023-04-15T02:20:50.654Z,94240.31
2023-04-15T02:24:36.002Z,94240.09
2023-04-15T02:28:18.667Z,94240.69
2023-04-15T02:32:01.417Z,94236.22
2023-04-15T02:35:45.383Z,94240.81
2023-04-15T02:39:28.096Z,94232.81
2023-04-15T02:43:12.292Z,94237.03
2023-04-15T02:46:54.960Z,94229.88
2023-04-15T02:50:39.846Z,94223.66
2023-04-15T02:54:23.782Z,94232.66
2023-04-15T02:58:06.478Z,94226.00
2023-04-15T03:01:50.602Z,94222.78
2023-04-15T03:05:33.430Z,94215.59
2023-04-15T03:09:16.064Z,94227.25
2023-04-15T03:12:58.685Z,94226.66
2023-04-15T03:16:41.366Z,94217.59
2023-04-15T03:20:25.483Z,94231.63
2023-04-15T03:24:08.158Z,94229.22
2023-04-15T03:27:51.055Z,94241.88
2023-04-15T03:31:33.920Z,94240.09
2023-04-15T03:35:17.058Z,94234.09
2023-04-15T03:39:02.245Z,94245.72
2023-04-15T03:42:45.180Z,94238.91
2023-04-15T03:46:27.916Z,94240.50
2023-04-15T03:50:11.188Z,94242.91
2023-04-15T03:53:53.945Z,94246.31
2023-04-15T03:57:39.045Z,94243.31
2023-04-15T04:01:22.040Z,94242.09
2023-04-15T04:05:05.053Z,94249.34
2023-04-15T04:08:47.717Z,94246.53
2023-04-15T04:12:30.626Z,94240.91
2023-04-15T04:16:14.699Z,94250.13
2023-04-15T04:19:57.452Z,94250.16
2023-04-15T04:23:40.150Z,94252.97
2023-04-15T04:27:22.789Z,94251.34
2023-04-15T04:31:05.550Z,94250.53
2023-04-15T04:34:49.540Z,94250.53
2023-04-15T04:38:32.186Z,94254.31
2023-04-15T04:42:14.886Z,94256.91
2023-04-15T04:45:57.566Z,94255.28
2023-04-15T04:49:40.985Z,94250.50
2023-04-15T04:53:25.062Z,94255.28
2023-04-15T04:57:08.609Z,94251.72
2023-04-15T05:00:51.878Z,94255.94
2023-04-15T05:04:34.660Z,94251.13
2023-04-15T05:08:17.520Z,94258.75
2023-04-15T05:12:01.558Z,94254.31
2023-04-15T05:15:44.893Z,94256.53
2023-04-15T05:19:27.604Z,94255.28
2023-04-15T05:23:10.268Z,94257.31
2023-04-15T05:26:52.894Z,94256.91
2023-04-15T05:30:36.938Z,94254.06
2023-04-15T05:34:19.759Z,94252.44
2023-04-15T05:38:02.400Z,94267.28
2023-04-15T05:41:45.127Z,94260.88
2023-04-15T05:45:27.737Z,94260.47
2023-04-15T05:49:12.050Z,94265.50
2023-04-15T05:52:54.728Z,94258.53
2023-04-15T05:56:37.420Z,94258.53
2023-04-15T06:00:21.238Z,94252.13
2023-04-15T06:04:03.981Z,94259.38
2023-04-15T06:07:48.701Z,94257.75
2023-04-15T06:11:31.511Z,94261.75
2023-04-15T06:15:14.147Z,94262.19
2023-04-15T06:18:56.827Z,94269.81
2023-04-15T06:22:39.826Z,94261.78
2023-04-15T06:26:23.812Z,94256.38
2023-04-15T06:30:08.072Z,94274.22
2023-04-15T06:33:50.767Z,94265.78
2023-04-15T06:37:33.390Z,94265.78
2023-04-15T06:41:16.273Z,94270.41
2023-04-15T06:45:00.418Z,94266.63
2023-04-15T06:48:43.051Z,94273.44
2023-04-15T06:52:26.112Z,94271.88
2023-04-15T06:56:09.580Z,94270.25
2023-04-15T06:59:54.577Z,94270.25
2023-04-15T07:03:38.994Z,94270.66
2023-04-15T07:07:21.620Z,94266.47
2023-04-15T07:11:04.269Z,94277.31
2023-04-15T07:14:47.167Z,94273.50
2023-04-15T07:18:29.853Z,94272.09
2023-04-15T07:22:14.129Z,94265.88
2023-04-15T07:25:57.015Z,94274.09
2023-04-15T07:29:39.681Z,94275.47
2023-04-15T07:33:22.535Z,94274.59
2023-04-15T07:37:05.328Z,94275.84
2023-04-15T07:40:49.590Z,94279.81
2023-04-15T07:44:32.490Z,94281.75
2023-04-15T07:48:15.122Z,94281.97
2023-04-15T07:51:57.796Z,94281.38
2023-04-15T07:55:40.541Z,94288.19
2023-04-15T07:59:24.577Z,94278.84
2023-04-15T08:03:07.753Z,94284.22
2023-04-15T08:06:50.548Z,94285.56
2023-04-15T08:10:33.188Z,94275.16
2023-04-15T08:14:15.970Z,94269.84
2023-04-15T08:18:00.727Z,94267.91
2023-04-15T08:21:43.410Z,94269.59
2023-04-15T08:25:26.277Z,94274.13
2023-04-15T08:29:09.145Z,94280.44
2023-04-15T08:32:52.237Z,94280.88
2023-04-15T08:36:36.753Z,94284.16
2023-04-15T08:40:19.495Z,94292.16
2023-04-15T08:44:05.402Z,94283.13
2023-04-15T08:47:49.965Z,94267.13
2023-04-15T08:51:33.717Z,94287.66
2023-04-15T08:55:17.890Z,94270.25
2023-04-15T08:59:01.092Z,94282.63
2023-04-15T09:02:44.362Z,94277.34
2023-04-15T09:06:27.312Z,94267.78
2023-04-15T09:10:11.695Z,94287.13
2023-04-15T09:13:55.746Z,94287.44
2023-04-15T09:17:43.580Z,94280.34
2023-04-15T09:21:26.337Z,94282.91
2023-04-15T09:25:28.030Z,94295.75
2023-04-15T09:29:13.521Z,94298.72
2023-04-15T09:32:57.636Z,94298.19
2023-04-15T09:36:54.002Z,94295.72
2023-04-15T09:40:37.838Z,94295.34
2023-04-15T09:44:25.185Z,94301.91
2023-04-15T09:48:20.761Z,94298.41
2023-04-15T09:52:06.018Z,94300.34
2023-04-15T09:55:51.454Z,94306.03
2023-04-15T09:59:35.647Z,94311.31
2023-04-15T10:03:21.140Z,94311.84
2023-04-15T10:07:05.144Z,94303.16
2023-04-15T10:10:48.391Z,94310.38
2023-04-15T10:14:35.601Z,94305.13
2023-04-15T10:18:20.960Z,94304.66
2023-04-15T10:22:03.729Z,94299.94
2023-04-15T10:25:47.478Z,94306.88
2023-04-15T10:29:30.401Z,94314.22
2023-04-15T10:33:14.684Z,94319.47
2023-04-15T10:36:57.863Z,94315.41
2023-04-15T10:40:41.082Z,94311.59
2023-04-15T10:44:23.874Z,94315.00
2023-04-15T10:48:08.740Z,94311.13
2023-04-15T10:51:54.565Z,94324.56
2023-04-15T10:55:37.236Z,94320.25
2023-04-15T10:59:21.404Z,94331.69
2023-04-15T11:03:08.032Z,94323.47
2023-04-15T11:07:07.983Z,94333.09
2023-04-15T11:10:57.398Z,94322.91
2023-04-15T11:14:41.418Z,94327.13
2023-04-15T11:18:25.568Z,94329.38
2023-04-15T11:22:10.579Z,94329.69
2023-04-15T11:25:53.206Z,94324.34
2023-04-15T11:29:36.532Z,94329.97
2023-04-15T11:33:19.308Z,94333.13
2023-04-15T11:37:03.616Z,94330.19
2023-04-15T11:40:47.725Z,94331.63
2023-04-15T11:44:30.433Z,94339.50
2023-04-15T11:48:16.288Z,94341.97
2023-04-15T11:51:58.994Z,94346.94
2023-04-15T11:55:47.282Z,94336.44
2023-04-15T11:59:45.495Z,94344.97
2023-04-15T12:03:30.988Z,94353.03
2023-04-15T12:07:13.889Z,94360.31
2023-04-15T12:11:01.605Z,94356.75
2023-04-15T12:14:44.784Z,94361.13
2023-04-15T12:18:27.485Z,94373.22
2023-04-15T12:22:11.544Z,94369.59
2023-04-15T12:25:54.149Z,94382.31
2023-04-15T12:29:40.122Z,94386.97
2023-04-15T12:33:22.726Z,94383.34
2023-04-15T12:37:09.461Z,94387.00
2023-04-15T12:40:52.177Z,94389.19
2023-04-15T12:44:37.140Z,94386.72
2023-04-15T12:48:21.280Z,94393.38
2023-04-15T12:52:04.654Z,94387.34
2023-04-15T12:55:47.303Z,94392.50
2023-04-15T12:59:30.029Z,94399.44
2023-04-15T13:03:12.700Z,94397.50
2023-04-15T13:06:56.888Z,94396.34
2023-04-15T13:10:39.635Z,94409.47
2023-04-15T13:14:22.342Z,94419.81
2023-04-15T13:18:08.416Z,94412.66
2023-04-15T13:21:51.060Z,94434.91
2023-04-15T13:25:35.016Z,94430.72
2023-04-15T13:29:17.606Z,94426.13
2023-04-15T13:33:00.662Z,94433.84
2023-04-15T13:36:43.351Z,94437.63
2023-04-15T13:40:26.334Z,94439.66
2023-04-15T13:44:13.535Z,94450.31
2023-04-15T13:47:56.791Z,94449.88
2023-04-15T13:51:40.520Z,94455.63
2023-04-15T13:55:25.471Z,94463.00
2023-04-15T13:59:10.438Z,94464.78
2023-04-15T14:02:53.238Z,94468.31
2023-04-15T14:06:35.989Z,94472.84
2023-04-15T14:10:18.775Z,94477.28
2023-04-15T14:14:01.427Z,94481.81
2023-04-15T14:17:45.550Z,94472.59
2023-04-15T14:21:29.972Z,94492.56
2023-04-15T14:25:23.141Z,94491.22
2023-04-15T14:29:13.397Z,94496.84
2023-04-15T14:32:57.502Z,94504.91
2023-04-15T14:36:41.703Z,94511.38
2023-04-15T14:40:24.447Z,94509.19
2023-04-15T14:44:09.683Z,94515.41
2023-04-15T14:47:53.185Z,94521.81
2023-04-15T14:51:37.327Z,94527.91
2023-04-15T14:55:20.401Z,94535.56
2023-04-15T14:59:03.274Z,94537.16
2023-04-15T15:02:47.482Z,94547.28
2023-04-15T15:06:30.329Z,94542.84
2023-04-15T15:10:14.353Z,94552.97
2023-04-15T15:13:57.043Z,94563.97
2023-04-15T15:17:39.760Z,94578.09
2023-04-15T15:21:22.458Z,94594.06
2023-04-15T15:25:05.747Z,94591.66
2023-04-15T15:28:50.714Z,94600.13
2023-04-15T15:32:33.462Z,94603.53
2023-04-15T15:36:16.119Z,94621.03
2023-04-15T15:39:58.854Z,94613.19
2023-04-15T15:43:41.559Z,94608.34
2023-04-15T15:47:26.548Z,94630.47
2023-04-15T15:51:09.241Z,94630.84
2023-04-15T15:54:51.910Z,94638.88
2023-04-15T15:58:34.675Z,94628.81
2023-04-15T16:02:17.384Z,94627.59
2023-04-15T16:06:01.610Z,94631.22
2023-04-15T16:09:44.351Z,94641.47
2023-04-15T16:13:26.989Z,94639.66
2023-04-15T16:17:09.680Z,94639.47
2023-04-15T16:20:52.285Z,94649.94
2023-04-15T16:24:36.240Z,94669.69
2023-04-15T16:28:26.366Z,94662.25
2023-04-15T16:32:09.777Z,94672.69
2023-04-15T16:35:52.679Z,94671.47
2023-04-15T16:39:37.325Z,94679.09
2023-04-15T16:43:21.295Z,94683.91
2023-04-15T16:47:03.950Z,94680.88
2023-04-15T16:50:46.625Z,94701.78
2023-04-15T16:54:29.713Z,94707.00
2023-04-15T16:58:13.685Z,94715.19
2023-04-15T17:01:56.380Z,94707.47
2023-04-15T17:05:39.093Z,94716.66
2023-04-15T17:09:21.792Z,94721.91
2023-04-15T17:13:04.453Z,94720.59
2023-04-15T17:16:48.529Z,94742.06
2023-04-15T17:20:31.185Z,94741.41
2023-04-15T17:24:13.823Z,94730.53
2023-04-15T17:27:56.589Z,94739.97
2023-04-15T17:31:39.397Z,94748.56
2023-04-15T17:35:25.560Z,94757.16
2023-04-15T17:39:11.580Z,94765.75
2023-04-15T17:42:54.704Z,94764.34
2023-04-15T17:46:37.395Z,94776.88
2023-04-15T17:50:20.280Z,94772.03
2023-04-15T17:54:04.601Z,94780.38
2023-04-15T17:57:47.535Z,94769.69
2023-04-15T18:01:30.536Z,94780.00
2023-04-15T18:05:13.201Z,94787.84
2023-04-15T18:08:56.086Z,94787.47
2023-04-15T18:12:40.068Z,94794.28
2023-04-15T18:16:22.862Z,94804.72
2023-04-15T18:20:06.103Z,94805.28
2023-04-15T18:23:48.757Z,94804.84
2023-04-15T18:27:32.075Z,94811.69
2023-04-15T18:31:16.195Z,94818.53
2023-04-15T18:34:58.924Z,94825.34
2023-04-15T18:38:41.928Z,94833.03
2023-04-15T18:42:24.802Z,94841.00
2023-04-15T18:46:11.719Z,94835.78
2023-04-15T18:49:55.881Z,94841.38
2023-04-15T18:53:38.623Z,94855.34
2023-04-15T18:57:23.361Z,94864.25
2023-04-15T19:01:10.598Z,94864.25
2023-04-15T19:04:55.962Z,94863.63
2023-04-15T19:08:38.647Z,94874.31
2023-04-15T19:12:21.345Z,94877.19
2023-04-15T19:16:04.097Z,94874.47
2023-04-15T19:19:46.813Z,94883.47
2023-04-15T19:23:31.847Z,94885.31
2023-04-15T19:27:14.604Z,94886.31
2023-04-15T19:30:57.997Z,94892.53
2023-04-15T19:34:40.779Z,94896.31
2023-04-15T19:38:23.457Z,94887.44
2023-04-15T19:42:07.509Z,94898.63
2023-04-15T19:45:52.309Z,94902.19
2023-04-15T19:49:35.065Z,94906.53
2023-04-15T19:53:17.671Z,94906.09
2023-04-15T19:57:01.455Z,94919.75
2023-04-15T20:00:45.509Z,94913.72
2023-04-15T20:04:28.336Z,94933.31
2023-04-15T20:08:11.300Z,94924.50
2023-04-15T20:12:48.243Z,94929.09
2023-04-15T20:15:57.916Z,94934.69
2023-04-15T20:19:40.638Z,94928.09
2023-04-15T20:23:23.274Z,94938.72
2023-04-15T20:27:06.141Z,94942.88
2023-04-15T20:30:48.812Z,94942.63
2023-04-15T20:34:32.763Z,94947.72
2023-04-15T20:38:16.353Z,94948.47
2023-04-15T20:41:59.081Z,94956.13
2023-04-15T20:45:41.705Z,94956.19
2023-04-15T20:49:24.402Z,94954.56
2023-04-15T20:53:08.398Z,94957.28
2023-04-15T20:56:51.028Z,94965.94
2023-04-15T21:00:33.745Z,94971.50
2023-04-15T21:04:16.441Z,94971.50
2023-04-15T21:07:59.095Z,94969.19
2023-04-15T21:12:00.423Z,94977.09
2023-04-15T21:15:44.895Z,94971.88
2023-04-15T21:19:27.519Z,94973.59
2023-04-15T21:23:12.487Z,94999.56
2023-04-15T21:26:57.613Z,94991.38
2023-04-15T21:30:40.258Z,94993.91
2023-04-15T21:34:22.877Z,95000.28
2023-04-15T21:38:05.513Z,95002.63
2023-04-15T21:41:48.128Z,95010.00
2023-04-15T21:45:32.161Z,95008.13
2023-04-15T21:49:14.841Z,95015.41
2023-04-15T21:52:57.498Z,95011.72
2023-04-15T21:56:40.108Z,95029.19
2023-04-15T22:00:23.093Z,95020.75
2023-04-15T22:04:07.472Z,95034.13
2023-04-15T22:07:50.497Z,95034.31
2023-04-15T22:11:33.150Z,95034.22
2023-04-15T22:15:16.722Z,95038.16
2023-04-15T22:18:59.443Z,95052.88
2023-04-15T22:22:44.742Z,95044.78
2023-04-15T22:26:27.559Z,95053.84
2023-04-15T22:30:11.517Z,95060.50
2023-04-15T22:33:54.097Z,95066.66
2023-04-15T22:37:36.722Z,95073.25
2023-04-15T22:41:20.686Z,95063.28
2023-04-15T22:45:03.325Z,95081.72
2023-04-15T22:48:45.952Z,95080.31
2023-04-15T22:52:31.035Z,95074.78
2023-04-15T22:56:14.078Z,95084.91
2023-04-15T22:59:58.063Z,95075.00
2023-04-15T23:03:55.839Z,95083.81
2023-04-15T23:07:42.636Z,95088.56
2023-04-15T23:11:25.238Z,95081.72
2023-04-15T23:15:10.401Z,95086.69
2023-04-15T23:18:53.030Z,95082.28
2023-04-15T23:22:37.483Z,95087.28
2023-04-15T23:26:20.087Z,95091.81
2023-04-15T23:30:02.816Z,95093.84
2023-04-15T23:33:46.788Z,95095.47
2023-04-15T23:37:31.096Z,95102.28
2023-04-15T23:41:14.507Z,95092.22
2023-04-15T23:44:57.272Z,95106.69
2023-04-15T23:48:40.626Z,95095.09
2023-04-15T23:52:24.653Z,95103.91
2023-04-15T23:56:07.745Z,95099.38
2023-04-15T23:59:50.557Z,95105.69
